Time;durP1;ratioP1;P1;durP2;ratioP2;P2;SDS_P1;SDS_P2;PMS_P1;PMS_P2;Temp;Humidity;BMP_temperature;BMP_pressure;BME280_temperature;BME280_humidity;BME280_pressure;Samples;Min_cycle;Max_cycle;Signal;HPM_P1;HPM_P2
2023/12/21 00:00:42;;;;;;;0.22;0.22;;;;;;;7.50;100.00;99515.50;4995814;28;20513;-84
2023/12/21 00:03:11;;;;;;;0.30;0.20;;;;;;;7.52;100.00;99502.44;5007097;28;20061;-84
2023/12/21 00:05:38;;;;;;;0.10;0.10;;;;;;;7.54;100.00;99492.88;4990999;28;20477;-82
2023/12/21 00:08:11;;;;;;;0.20;0.20;;;;;;;7.58;100.00;99494.53;5004629;28;20056;-83
2023/12/21 00:10:41;;;;;;;0.20;0.20;;;;;;;7.58;100.00;99499.75;5011526;28;20128;-83
2023/12/21 00:13:07;;;;;;;0.17;0.17;;;;;;;7.61;100.00;99495.34;5008780;28;20136;-83
2023/12/21 00:15:34;;;;;;;0.30;0.30;;;;;;;7.64;100.00;99498.78;5007913;28;20053;-82
2023/12/21 00:18:01;;;;;;;0.82;0.38;;;;;;;7.61;100.00;99494.47;5008014;28;20072;-82
2023/12/21 00:20:28;;;;;;;0.90;0.57;;;;;;;7.62;100.00;99496.22;4995247;28;20045;-83
2023/12/21 00:22:54;;;;;;;0.35;0.25;;;;;;;7.67;100.00;99499.59;4989680;28;20047;-83
2023/12/21 00:25:21;;;;;;;0.20;0.20;;;;;;;7.65;100.00;99510.94;5007973;28;20037;-83
2023/12/21 00:27:47;;;;;;;0.20;0.20;;;;;;;7.64;100.00;99509.19;4992125;28;20073;-83
2023/12/21 00:30:15;;;;;;;0.10;0.10;;;;;;;7.60;100.00;99506.66;4999916;28;20053;-84
2023/12/21 00:32:44;;;;;;;0.20;0.10;;;;;;;7.56;100.00;99501.50;4992918;28;20049;-84
2023/12/21 00:35:13;;;;;;;0.43;0.30;;;;;;;7.53;100.00;99504.16;4992931;28;20104;-83
2023/12/21 00:37:40;;;;;;;0.30;0.20;;;;;;;7.53;100.00;99512.81;5007337;28;20041;-84
2023/12/21 00:40:08;;;;;;;0.03;0.03;;;;;;;7.49;100.00;99499.88;4994720;28;21034;-84
2023/12/21 00:42:36;;;;;;;1.30;0.10;;;;;;;7.73;100.00;99512.53;5021852;28;20134;-83
2023/12/21 00:45:06;;;;;;;0.20;0.20;;;;;;;7.69;100.00;99503.06;5008902;28;20128;-83
2023/12/21 00:47:37;;;;;;;0.20;0.20;;;;;;;7.69;100.00;99494.34;5009611;28;20059;-84
2023/12/21 00:50:04;;;;;;;0.20;0.20;;;;;;;7.65;100.00;99490.09;5006885;28;20114;-84
2023/12/21 00:52:31;;;;;;;0.20;0.20;;;;;;;7.65;100.00;99490.09;4989624;28;20054;-84
2023/12/21 00:55:04;;;;;;;0.85;0.22;;;;;;;7.60;100.00;99474.53;4992360;28;20053;-83
2023/12/21 00:57:32;;;;;;;1.33;0.80;;;;;;;7.64;100.00;99481.44;4993195;28;20072;-84
2023/12/21 00:59:59;;;;;;;0.10;0.10;;;;;;;7.60;100.00;99470.19;5006902;28;20526;-81
2023/12/21 01:02:26;;;;;;;1.25;0.20;;;;;;;7.62;100.00;99475.38;5007431;28;20045;-83
2023/12/21 01:04:52;;;;;;;0.20;0.20;;;;;;;7.67;100.00;99478.75;5021511;28;20046;-84
2023/12/21 01:07:19;;;;;;;0.10;0.10;;;;;;;7.63;100.00;99469.28;5008172;28;20113;-85
2023/12/21 01:09:46;;;;;;;0.25;0.20;;;;;;;7.65;100.00;99470.09;4989847;28;20049;-84
2023/12/21 01:12:15;;;;;;;0.03;0.03;;;;;;;7.66;100.00;99481.41;4988134;28;20052;-84
2023/12/21 01:14:42;;;;;;;0.00;0.00;;;;;;;7.70;100.00;99473.50;5007791;28;20567;-84
2023/12/21 01:17:11;;;;;;;0.40;0.20;;;;;;;7.74;100.00;99462.16;4990740;28;20111;-84
2023/12/21 01:19:38;;;;;;;0.00;0.00;;;;;;;7.75;100.00;99460.41;5010261;28;20045;-84
2023/12/21 01:24:45;;;;;;;0.00;0.00;;;;;;;7.77;100.00;99464.72;4993075;28;20569;-82
2023/12/21 01:27:12;;;;;;;0.10;0.10;;;;;;;7.75;100.00;99460.41;5007879;28;20045;-83
2023/12/21 01:29:38;;;;;;;0.00;0.00;;;;;;;7.76;100.00;99472.56;5009903;28;20120;-84
2023/12/21 01:32:13;;;;;;;0.20;0.10;;;;;;;7.73;100.00;99455.22;4990706;28;20057;-83
2023/12/21 01:34:41;;;;;;;0.00;0.00;;;;;;;7.73;100.00;99454.34;5003118;28;20049;-84
2023/12/21 01:37:08;;;;;;;0.55;0.55;;;;;;;7.80;100.00;99445.56;4999153;28;20087;-83
2023/12/21 01:39:40;;;;;;;0.00;0.00;;;;;;;7.76;100.00;99444.75;4989455;28;20055;-82
2023/12/21 01:42:07;;;;;;;0.10;0.10;;;;;;;7.78;100.00;99432.56;5007750;28;20041;-81
2023/12/21 01:44:33;;;;;;;0.00;0.00;;;;;;;7.78;100.00;99422.16;5006169;28;20076;-84
2023/12/21 01:47:03;;;;;;;0.10;0.10;;;;;;;7.78;100.00;99424.75;4992640;28;20053;-83
2023/12/21 01:49:30;;;;;;;0.00;0.00;;;;;;;7.79;100.00;99404.75;5006053;28;21330;-84
2023/12/21 01:51:57;;;;;;;0.00;0.00;;;;;;;7.83;100.00;99413.38;5006808;28;20062;-83
2023/12/21 01:54:24;;;;;;;1.20;0.17;;;;;;;7.82;100.00;99401.25;5017193;28;20049;-83
2023/12/21 01:56:51;;;;;;;0.63;0.10;;;;;;;7.80;100.00;99400.44;4985321;28;20108;-84
2023/12/21 01:59:18;;;;;;;0.50;0.10;;;;;;;7.83;100.00;99390.78;4988146;28;20091;-83
2023/12/21 02:01:47;;;;;;;0.15;0.15;;;;;;;7.82;100.00;99396.88;5022728;28;20045;-83
2023/12/21 02:04:17;;;;;;;0.57;0.10;;;;;;;7.83;100.00;99379.50;4992221;28;20052;-84
2023/12/21 02:06:43;;;;;;;0.90;0.20;;;;;;;7.88;100.00;99386.34;5007720;28;20045;-83
2023/12/21 02:09:13;;;;;;;0.20;0.20;;;;;;;7.90;100.00;99373.28;5020952;28;20042;-83
2023/12/21 02:11:40;;;;;;;0.40;0.10;;;;;;;7.86;100.00;99374.25;5004789;28;20502;-83
2023/12/21 02:14:07;;;;;;;1.13;1.13;;;;;;;7.87;100.00;99379.41;5004466;28;20104;-84
2023/12/21 02:16:45;;;;;;;0.30;0.10;;;;;;;7.84;100.00;99368.22;5006923;28;20112;-84
2023/12/21 02:19:17;;;;;;;0.10;0.10;;;;;;;7.87;100.00;99353.34;4988003;28;20042;-84
2023/12/21 02:21:44;;;;;;;0.50;0.50;;;;;;;7.83;100.00;99361.28;5007030;28;20041;-85
2023/12/21 02:24:15;;;;;;;0.13;0.13;;;;;;;7.82;100.00;99363.00;5006502;28;20057;-84
2023/12/21 02:26:43;;;;;;;0.30;0.30;;;;;;;7.89;100.00;99337.72;5006064;28;20038;-84
2023/12/21 02:29:12;;;;;;;0.25;0.25;;;;;;;7.87;100.00;99348.16;5003292;28;20099;-84
2023/12/21 02:31:42;;;;;;;0.20;0.20;;;;;;;7.86;100.00;99332.56;4987003;28;20161;-84
2023/12/21 02:34:09;;;;;;;0.20;0.10;;;;;;;7.86;100.00;99333.44;5003456;28;20545;-82
2023/12/21 02:36:36;;;;;;;0.10;0.10;;;;;;;7.84;100.00;99322.16;4992954;28;20437;-82
2023/12/21 02:39:02;;;;;;;0.30;0.30;;;;;;;7.83;100.00;99312.63;5006237;28;20056;-84
2023/12/21 02:41:29;;;;;;;0.75;0.20;;;;;;;7.82;100.00;99317.88;5005996;28;20153;-84
2023/12/21 02:43:59;;;;;;;0.10;0.10;;;;;;;7.82;100.00;99312.66;5006482;28;20056;-84
2023/12/21 02:46:28;;;;;;;0.43;0.10;;;;;;;7.85;100.00;99304.78;4989036;28;20442;-84
2023/12/21 02:48:58;;;;;;;0.10;0.10;;;;;;;7.86;100.00;99304.78;4986640;28;20050;-83
2023/12/21 02:51:28;;;;;;;0.10;0.10;;;;;;;7.82;100.00;99308.28;5005547;28;21549;-85
2023/12/21 02:53:57;;;;;;;0.10;0.10;;;;;;;7.83;100.00;99304.81;5001875;28;20041;-85
2023/12/21 02:56:25;;;;;;;0.13;0.13;;;;;;;7.82;100.00;99308.28;4989098;28;20048;-82
2023/12/21 02:58:52;;;;;;;0.10;0.10;;;;;;;7.87;100.00;99290.81;5002414;28;20061;-82
2023/12/21 03:01:18;;;;;;;0.13;0.13;;;;;;;7.85;100.00;99292.63;5007459;28;20156;-83
2023/12/21 03:03:45;;;;;;;0.30;0.10;;;;;;;7.86;100.00;99288.25;5007164;28;20133;-83
2023/12/21 03:06:13;;;;;;;0.10;0.10;;;;;;;7.86;100.00;99290.88;5006019;28;20041;-82
2023/12/21 03:08:40;;;;;;;0.10;0.10;;;;;;;7.85;100.00;99287.41;5002967;28;20395;-82
2023/12/21 03:11:07;;;;;;;0.70;0.10;;;;;;;7.87;100.00;99288.22;5003018;28;20129;-83
2023/12/21 03:13:33;;;;;;;0.00;0.00;;;;;;;7.88;100.00;99283.88;4996409;28;20148;-84
2023/12/21 03:16:09;;;;;;;2.40;0.30;;;;;;;7.91;100.00;99274.28;5003918;28;20053;-83
2023/12/21 03:18:37;;;;;;;0.20;0.20;;;;;;;7.88;100.00;99268.25;4989414;28;20037;-83
2023/12/21 03:21:05;;;;;;;0.40;0.40;;;;;;;7.91;100.00;99266.44;4999177;28;20314;-83
2023/12/21 03:23:34;;;;;;;0.10;0.10;;;;;;;7.94;100.00;99266.38;4986484;28;20503;-83
2023/12/21 03:26:03;;;;;;;0.17;0.17;;;;;;;7.98;100.00;99241.13;4987204;28;20123;-83
2023/12/21 03:28:30;;;;;;;1.13;0.15;;;;;;;7.98;100.00;99241.13;4991806;28;20049;-83
2023/12/21 03:30:56;;;;;;;0.10;0.10;;;;;;;7.97;100.00;99228.97;4991919;28;20065;-83
2023/12/21 03:33:23;;;;;;;0.32;0.10;;;;;;;7.94;100.00;99216.88;5004422;28;20061;-84
2023/12/21 03:35:49;;;;;;;0.10;0.10;;;;;;;7.95;100.00;99212.50;5003664;28;20041;-82
2023/12/21 03:38:16;;;;;;;0.05;0.05;;;;;;;7.93;100.00;99196.91;4989593;28;20052;-84
2023/12/21 03:40:48;;;;;;;0.25;0.10;;;;;;;7.93;100.00;99191.69;4988790;28;20126;-85
2023/12/21 03:43:18;;;;;;;0.10;0.10;;;;;;;8.00;100.00;99192.41;4991725;28;20553;-84
2023/12/21 03:45:45;;;;;;;0.10;0.10;;;;;;;7.99;100.00;99185.50;4991286;28;20050;-83
2023/12/21 03:48:11;;;;;;;0.10;0.10;;;;;;;8.04;100.00;99186.25;5005358;28;20596;-84
2023/12/21 03:50:38;;;;;;;0.10;0.10;;;;;;;7.99;100.00;99169.88;4988853;28;20188;-84
2023/12/21 03:53:07;;;;;;;0.43;0.00;;;;;;;8.02;100.00;99161.13;5005588;28;20057;-84
2023/12/21 03:55:33;;;;;;;0.00;0.00;;;;;;;8.10;100.00;99167.03;5001802;28;20049;-84
2023/12/21 03:58:00;;;;;;;0.20;0.20;;;;;;;8.15;100.00;99161.69;5002795;28;20413;-84
2023/12/21 04:00:26;;;;;;;0.03;0.03;;;;;;;8.17;100.00;99157.31;4985868;28;20049;-84
2023/12/21 04:02:53;;;;;;;0.10;0.10;;;;;;;8.20;100.00;99154.63;4988942;28;20057;-83
2023/12/21 04:05:20;;;;;;;0.00;0.00;;;;;;;8.24;100.00;99149.31;5004304;28;20546;-83
2023/12/21 04:07:46;;;;;;;0.08;0.03;;;;;;;8.25;100.00;99122.34;5004878;28;20041;-83
2023/12/21 04:10:15;;;;;;;0.00;0.00;;;;;;;8.27;100.00;99128.38;4991332;28;20463;-82
2023/12/21 04:12:42;;;;;;;1.00;0.10;;;;;;;8.29;100.00;99123.13;4989462;28;20049;-83
2023/12/21 04:15:11;;;;;;;0.10;0.10;;;;;;;8.36;100.00;99123.84;4990817;28;20053;-82
2023/12/21 04:17:38;;;;;;;0.10;0.10;;;;;;;8.40;100.00;99136.75;5006467;28;20087;-84
2023/12/21 04:20:07;;;;;;;0.30;0.10;;;;;;;8.37;100.00;99126.41;5004472;28;20045;-84
2023/12/21 04:22:33;;;;;;;0.10;0.10;;;;;;;8.39;100.00;99103.75;5001700;28;20057;-84
2023/12/21 04:25:01;;;;;;;1.15;0.10;;;;;;;8.41;100.00;99083.72;5000652;28;20227;-81
2023/12/21 04:27:28;;;;;;;0.10;0.10;;;;;;;8.46;100.00;99080.16;5003857;28;20120;-83
2023/12/21 04:29:55;;;;;;;0.50;0.10;;;;;;;8.41;100.00;99077.66;4999538;28;20042;-84
2023/12/21 04:32:22;;;;;;;0.82;0.20;;;;;;;8.39;100.00;99067.25;5007027;28;20045;-83
2023/12/21 04:34:48;;;;;;;0.10;0.10;;;;;;;8.38;100.00;99062.06;5010173;28;20046;-84
2023/12/21 04:37:15;;;;;;;0.10;0.10;;;;;;;8.37;100.00;99053.41;5006750;28;20045;-83
2023/12/21 04:39:42;;;;;;;1.45;0.45;;;;;;;8.35;100.00;99057.78;5009632;28;20692;-83
2023/12/21 04:42:12;;;;;;;0.40;0.40;;;;;;;8.33;100.00;99053.50;5008170;28;20050;-83
2023/12/21 04:44:41;;;;;;;0.30;0.30;;;;;;;8.34;100.00;99047.41;5006732;28;20045;-84
2023/12/21 04:47:08;;;;;;;0.20;0.20;;;;;;;8.36;100.00;99056.06;5009435;28;20046;-84
2023/12/21 04:49:36;;;;;;;0.15;0.10;;;;;;;8.34;100.00;99048.25;5007546;28;20055;-83
2023/12/21 04:52:03;;;;;;;0.55;0.30;;;;;;;8.34;100.00;99058.69;5005145;28;20049;-85
2023/12/21 04:54:33;;;;;;;2.78;0.22;;;;;;;8.39;100.00;99048.13;5008302;28;20040;-83
2023/12/21 04:57:00;;;;;;;0.30;0.30;;;;;;;8.43;100.00;99044.56;4992457;28;20138;-85
2023/12/21 04:59:28;;;;;;;0.20;0.10;;;;;;;8.47;100.00;99045.38;4993886;28;20045;-85
2023/12/21 05:01:56;;;;;;;0.15;0.10;;;;;;;8.50;100.00;99037.44;5003518;28;20236;-83
2023/12/21 05:04:23;;;;;;;0.28;0.20;;;;;;;8.47;100.00;99030.56;5018357;28;20048;-84
2023/12/21 05:06:53;;;;;;;1.35;0.10;;;;;;;8.51;100.00;99033.97;5005869;28;20053;-83
2023/12/21 05:09:21;;;;;;;0.20;0.10;;;;;;;8.56;100.00;99017.28;4991487;28;20056;-83
2023/12/21 05:11:48;;;;;;;0.05;0.05;;;;;;;8.60;100.00;99023.28;5009768;28;20124;-82
2023/12/21 05:14:15;;;;;;;0.20;0.20;;;;;;;8.66;100.00;99011.84;4991513;28;20524;-83
2023/12/21 05:16:41;;;;;;;0.10;0.10;;;;;;;8.60;100.00;98992.84;5005335;28;20045;-84
2023/12/21 05:19:08;;;;;;;0.20;0.20;;;;;;;8.69;100.00;98988.25;4991803;28;20132;-83
2023/12/21 05:21:35;;;;;;;0.45;0.28;;;;;;;8.66;100.00;98985.75;5022784;28;20049;-83
2023/12/21 05:24:04;;;;;;;0.10;0.10;;;;;;;8.64;100.00;99008.41;5002325;28;20122;-84
2023/12/21 05:26:31;;;;;;;0.82;0.13;;;;;;;8.72;100.00;98996.88;4990058;28;20061;-83
2023/12/21 05:28:58;;;;;;;0.10;0.10;;;;;;;8.70;100.00;98990.81;5009467;28;21194;-82
2023/12/21 05:31:25;;;;;;;1.45;0.10;;;;;;;8.67;100.00;98977.00;4992885;28;20140;-84
2023/12/21 05:33:52;;;;;;;0.40;0.15;;;;;;;8.69;100.00;98970.00;5001218;28;20075;-83
2023/12/21 05:36:24;;;;;;;0.10;0.10;;;;;;;8.75;100.00;98967.22;5008997;28;20118;-83
2023/12/21 05:38:52;;;;;;;1.15;0.52;;;;;;;8.69;100.00;98965.63;5009985;28;20046;-85
2023/12/21 05:41:22;;;;;;;0.10;0.10;;;;;;;8.72;100.00;98956.84;5009347;28;20528;-84
2023/12/21 05:43:49;;;;;;;1.17;0.98;;;;;;;8.67;100.00;98945.69;5008300;28;20585;-83
2023/12/21 05:46:15;;;;;;;0.28;0.20;;;;;;;8.69;100.00;98949.97;5010138;28;20057;-83
2023/12/21 05:48:41;;;;;;;0.38;0.20;;;;;;;8.63;100.00;98944.97;5012511;28;20056;-83
2023/12/21 05:51:08;;;;;;;0.10;0.10;;;;;;;8.52;100.00;98932.19;5011010;28;20041;-83
2023/12/21 05:53:40;;;;;;;0.10;0.10;;;;;;;8.55;100.00;98939.09;5006918;28;20476;-83
2023/12/21 05:56:07;;;;;;;0.75;0.10;;;;;;;8.51;100.00;98943.53;4988682;28;20052;-83
2023/12/21 05:58:35;;;;;;;0.55;0.20;;;;;;;8.53;100.00;98939.13;5006830;28;20049;-83
2023/12/21 06:01:05;;;;;;;0.10;0.10;;;;;;;8.46;100.00;98928.91;4985734;28;20157;-84
2023/12/21 06:03:34;;;;;;;0.00;0.00;;;;;;;8.46;100.00;98908.06;5006082;28;20506;-82
2023/12/21 06:06:04;;;;;;;0.10;0.10;;;;;;;8.48;100.00;98921.91;4987185;28;20073;-82
2023/12/21 06:08:33;;;;;;;0.30;0.00;;;;;;;8.52;100.00;98913.09;5004398;28;20037;-82
2023/12/21 06:10:59;;;;;;;0.10;0.00;;;;;;;8.54;100.00;98891.28;4993506;28;20108;-84
2023/12/21 06:13:28;;;;;;;0.00;0.00;;;;;;;8.56;100.00;98889.47;4967822;28;20120;-84
2023/12/21 06:15:54;;;;;;;0.08;0.08;;;;;;;8.57;100.00;98879.91;4981329;28;20138;-83
2023/12/21 06:18:21;;;;;;;0.08;0.08;;;;;;;8.58;100.00;98881.63;4970305;28;20063;-82
2023/12/21 06:20:48;;;;;;;1.00;0.10;;;;;;;8.52;100.00;98868.78;4984675;28;20148;-83
2023/12/21 06:23:14;;;;;;;0.10;0.10;;;;;;;8.57;100.00;98879.91;4988441;28;20099;-84
2023/12/21 06:25:42;;;;;;;0.10;0.10;;;;;;;8.55;100.00;98858.22;4971730;28;20066;-83
2023/12/21 06:28:09;;;;;;;0.10;0.10;;;;;;;8.55;100.00;98860.84;4973296;28;20050;-84
2023/12/21 06:30:36;;;;;;;0.10;0.10;;;;;;;8.50;100.00;98832.31;4985846;28;20057;-83
2023/12/21 06:33:03;;;;;;;0.17;0.10;;;;;;;8.56;100.00;98833.88;4984638;28;20088;-84
2023/12/21 06:35:33;;;;;;;0.05;0.05;;;;;;;8.54;100.00;98827.84;4985919;28;20069;-84
2023/12/21 06:38:00;;;;;;;1.20;0.50;;;;;;;8.51;100.00;98827.94;4983520;28;20050;-84
2023/12/21 06:40:27;;;;;;;0.10;0.10;;;;;;;8.47;100.00;98821.94;4985715;28;20049;-81
2023/12/21 06:42:53;;;;;;;0.30;0.20;;;;;;;8.50;100.00;98815.78;4984772;28;20046;-83
2023/12/21 06:45:22;;;;;;;0.00;0.00;;;;;;;8.49;100.00;98790.63;4984712;28;20042;-83
2023/12/21 06:47:50;;;;;;;0.00;0.00;;;;;;;8.48;100.00;98791.53;4985675;28;20068;-81
2023/12/21 06:50:19;;;;;;;0.10;0.10;;;;;;;8.49;100.00;98785.41;4972440;28;20470;-84
2023/12/21 06:52:45;;;;;;;0.00;0.00;;;;;;;8.51;100.00;98770.56;4997967;28;20037;-82
2023/12/21 06:55:12;;;;;;;0.08;0.00;;;;;;;8.54;100.00;98776.53;4974018;28;20108;-83
2023/12/21 06:57:41;;;;;;;0.35;0.25;;;;;;;8.56;100.00;98769.50;4973779;28;20067;-83
2023/12/21 07:00:11;;;;;;;0.22;0.22;;;;;;;8.49;100.00;98744.53;4997779;28;20060;-83
2023/12/21 07:02:37;;;;;;;0.25;0.20;;;;;;;8.50;100.00;98730.59;4987089;28;20057;-83
2023/12/21 07:05:06;;;;;;;0.25;0.10;;;;;;;8.54;100.00;98720.91;4995084;28;20678;-82
2023/12/21 07:07:33;;;;;;;0.75;0.17;;;;;;;8.66;100.00;98732.72;4987146;28;20550;-80
2023/12/21 07:09:59;;;;;;;0.13;0.13;;;;;;;8.71;100.00;98717.78;5008376;28;20406;-82
2023/12/21 07:12:27;;;;;;;0.10;0.10;;;;;;;8.68;100.00;98697.00;5007208;28;20054;-82
2023/12/21 07:14:54;;;;;;;3.22;0.10;;;;;;;8.65;100.00;98689.28;5007480;28;20155;-82
2023/12/21 07:17:21;;;;;;;0.20;0.20;;;;;;;8.70;100.00;98676.94;5017435;28;20133;-83
2023/12/21 07:19:47;;;;;;;0.10;0.10;;;;;;;8.67;100.00;98674.41;5007926;28;20053;-84
2023/12/21 07:22:14;;;;;;;0.00;0.00;;;;;;;8.70;100.00;98666.50;4991332;28;20555;-83
2023/12/21 07:24:41;;;;;;;0.05;0.05;;;;;;;8.76;100.00;98656.72;5007234;28;20068;-83
2023/12/21 07:27:07;;;;;;;0.28;0.00;;;;;;;8.74;100.00;98642.03;5005632;28;20163;-82
2023/12/21 07:29:34;;;;;;;1.48;0.20;;;;;;;8.71;100.00;98616.91;5001388;28;20057;-82
2023/12/21 07:32:01;;;;;;;0.63;0.10;;;;;;;8.78;100.00;98625.34;4991413;28;20046;-84
2023/12/21 07:34:29;;;;;;;0.10;0.10;;;;;;;8.82;100.00;98600.03;5004053;28;20077;-83
2023/12/21 07:36:56;;;;;;;0.05;0.05;;;;;;;8.86;100.00;98585.97;5008614;28;20059;-84
2023/12/21 07:39:23;;;;;;;0.13;0.13;;;;;;;8.83;100.00;98575.66;4994968;28;20056;-84
2023/12/21 07:41:50;;;;;;;0.10;0.10;;;;;;;8.75;100.00;98524.56;5011243;28;20057;-83
2023/12/21 07:44:16;;;;;;;0.10;0.10;;;;;;;8.82;100.00;98551.28;4993056;28;20751;-82
2023/12/21 07:46:43;;;;;;;0.25;0.25;;;;;;;8.85;100.00;98550.34;5004161;28;20109;-82
2023/12/21 07:49:09;;;;;;;0.10;0.10;;;;;;;8.84;100.00;98531.22;5026993;28;20037;-83
2023/12/21 07:51:36;;;;;;;0.10;0.10;;;;;;;8.85;100.00;98521.63;5007888;28;20085;-82
2023/12/21 07:54:03;;;;;;;0.10;0.10;;;;;;;8.80;100.00;98529.66;4991729;28;20068;-83
2023/12/21 07:56:33;;;;;;;0.10;0.10;;;;;;;8.82;100.00;98521.75;4987311;28;20388;-85
2023/12/21 07:59:04;;;;;;;0.10;0.10;;;;;;;8.86;100.00;98516.34;4992518;28;20041;-83
2023/12/21 08:01:37;;;;;;;0.40;0.30;;;;;;;8.87;100.00;98505.03;4992449;28;20053;-83
2023/12/21 08:04:04;;;;;;;0.10;0.10;;;;;;;8.90;100.00;98511.88;5011611;28;20305;-82
2023/12/21 08:06:33;;;;;;;0.30;0.30;;;;;;;8.92;100.00;98482.22;5008031;28;20077;-82
2023/12/21 08:09:05;;;;;;;1.85;0.20;;;;;;;8.97;100.00;98483.81;5010417;28;20558;-84
2023/12/21 08:11:32;;;;;;;0.55;0.10;;;;;;;9.01;100.00;98490.59;5022133;28;20097;-82
2023/12/21 08:14:00;;;;;;;0.20;0.20;;;;;;;9.00;100.00;98481.94;5009195;28;20049;-84
2023/12/21 08:16:28;;;;;;;0.30;0.30;;;;;;;8.99;100.00;98485.44;5002991;28;20042;-84
2023/12/21 08:18:55;;;;;;;1.23;0.52;;;;;;;8.98;100.00;98478.53;4997141;28;20431;-83
2023/12/21 08:21:22;;;;;;;0.20;0.20;;;;;;;8.98;100.00;98480.28;5013771;28;21017;-85
2023/12/21 08:23:50;;;;;;;0.20;0.20;;;;;;;8.98;100.00;98470.69;5013332;28;20045;-83
2023/12/21 08:26:17;;;;;;;0.20;0.20;;;;;;;8.93;100.00;98459.59;5029520;28;20049;-84
2023/12/21 08:28:44;;;;;;;0.10;0.10;;;;;;;8.89;100.00;98444.94;5007451;28;20568;-84
2023/12/21 08:31:23;;;;;;;1.65;0.32;;;;;;;8.89;100.00;98458.00;4995034;28;20045;-84
2023/12/21 08:33:53;;;;;;;0.20;0.20;;;;;;;8.85;100.00;98472.94;4997489;28;20069;-83
2023/12/21 08:36:19;;;;;;;0.45;0.22;;;;;;;8.85;100.00;98472.06;5022783;28;20112;-83
2023/12/21 08:38:46;;;;;;;1.45;0.50;;;;;;;8.89;100.00;98468.44;4995036;28;20049;-83
2023/12/21 08:41:14;;;;;;;0.20;0.10;;;;;;;8.85;100.00;98472.06;4991823;28;20043;-84
2023/12/21 08:43:46;;;;;;;0.30;0.30;;;;;;;8.87;100.00;98468.50;5008501;28;20073;-84
2023/12/21 08:46:12;;;;;;;0.35;0.15;;;;;;;8.84;100.00;98462.53;4989791;28;20042;-83
2023/12/21 08:48:41;;;;;;;0.20;0.20;;;;;;;8.77;100.00;98454.94;5011590;28;20041;-83
2023/12/21 08:51:08;;;;;;;0.20;0.20;;;;;;;8.75;100.00;98442.88;5012052;28;20053;-83
2023/12/21 08:53:37;;;;;;;0.32;0.30;;;;;;;8.71;100.00;98423.88;5006130;28;20042;-84
2023/12/21 08:56:04;;;;;;;0.28;0.28;;;;;;;8.74;100.00;98430.72;5008392;28;20053;-84
2023/12/21 08:58:31;;;;;;;0.13;0.13;;;;;;;8.73;100.00;98440.28;5000785;28;20169;-83
2023/12/21 09:00:58;;;;;;;0.90;0.10;;;;;;;8.68;100.00;98430.94;5009136;28;20573;-83
2023/12/21 09:03:27;;;;;;;0.20;0.10;;;;;;;8.68;100.00;98412.69;4995107;28;20071;-82
2023/12/21 09:05:55;;;;;;;0.90;0.63;;;;;;;8.70;100.00;98421.31;5006870;28;20072;-83
2023/12/21 09:08:21;;;;;;;0.20;0.20;;;;;;;8.70;100.00;98410.88;4994511;28;20393;-83
2023/12/21 09:10:51;;;;;;;0.15;0.10;;;;;;;8.77;100.00;98402.78;5010417;28;20065;-85
2023/12/21 09:13:18;;;;;;;0.20;0.20;;;;;;;8.77;100.00;98396.69;5010042;28;20049;-84
2023/12/21 09:15:44;;;;;;;0.17;0.15;;;;;;;8.82;100.00;98396.53;5005722;28;20068;-84
2023/12/21 09:18:11;;;;;;;0.10;0.10;;;;;;;8.84;100.00;98398.16;4992994;28;20053;-84
2023/12/21 09:20:37;;;;;;;0.10;0.10;;;;;;;8.89;100.00;98374.50;5015338;28;20049;-82
2023/12/21 09:23:04;;;;;;;0.10;0.10;;;;;;;8.94;100.00;98383.88;5006242;28;20336;-86
2023/12/21 09:25:35;;;;;;;0.10;0.10;;;;;;;9.00;100.00;98366.28;5013573;28;20060;-84
2023/12/21 09:28:02;;;;;;;1.95;0.28;;;;;;;8.98;100.00;98373.28;5010219;28;20393;-82
2023/12/21 09:30:30;;;;;;;0.10;0.10;;;;;;;9.02;100.00;98361.81;4990125;28;20046;-82
2023/12/21 09:33:00;;;;;;;0.30;0.10;;;;;;;9.03;100.00;98342.66;5011092;28;20045;-84
2023/12/21 09:35:30;;;;;;;0.30;0.10;;;;;;;9.10;100.00;98350.19;4992252;28;20442;-83
2023/12/21 09:38:03;;;;;;;0.30;0.30;;;;;;;9.16;100.00;98325.56;4991574;28;20053;-82
2023/12/21 09:40:29;;;;;;;0.32;0.10;;;;;;;9.15;100.00;98328.25;4990269;28;20417;-85
2023/12/21 09:42:58;;;;;;;0.30;0.22;;;;;;;9.23;100.00;98315.72;5007340;28;20462;-83
2023/12/21 09:45:29;;;;;;;0.35;0.35;;;;;;;9.18;100.00;98309.88;5009189;28;20055;-83
2023/12/21 09:47:56;;;;;;;1.05;0.08;;;;;;;9.23;100.00;98319.22;4987110;28;20056;-83
2023/12/21 09:50:35;;;;;;;0.73;0.73;;;;;;;9.17;100.00;98311.63;5004260;28;20037;-81
2023/12/21 09:53:02;;;;;;;0.32;0.10;;;;;;;9.19;100.00;98299.38;5000102;28;20053;-85
2023/12/21 09:55:37;;;;;;;1.08;0.10;;;;;;;9.20;100.00;98281.94;5004229;28;20034;-83
2023/12/21 09:58:05;;;;;;;0.47;0.17;;;;;;;9.24;100.00;98265.22;4991413;28;20051;-82
2023/12/21 10:00:32;;;;;;;0.13;0.13;;;;;;;9.30;100.00;98269.38;5008594;28;20213;-83
2023/12/21 10:03:00;;;;;;;1.33;0.13;;;;;;;9.26;100.00;98251.19;4988505;28;20573;-84
2023/12/21 10:05:27;;;;;;;1.15;0.15;;;;;;;9.33;100.00;98256.16;5011078;28;20060;-84
2023/12/21 10:07:54;;;;;;;0.20;0.10;;;;;;;9.34;100.00;98257.88;4993341;28;20053;-82
2023/12/21 10:10:24;;;;;;;0.03;0.03;;;;;;;9.27;100.00;98221.56;5007017;28;20148;-83
2023/12/21 10:12:50;;;;;;;0.10;0.10;;;;;;;9.27;100.00;98218.13;4989805;28;20050;-83
2023/12/21 10:15:21;;;;;;;0.10;0.10;;;;;;;9.35;100.00;98223.03;5007436;28;20042;-84
2023/12/21 10:17:47;;;;;;;0.20;0.20;;;;;;;9.32;100.00;98212.69;5022739;28;20514;-82
2023/12/21 10:20:17;;;;;;;0.40;0.20;;;;;;;9.31;100.00;98206.63;5009344;28;20048;-83
2023/12/21 10:22:44;;;;;;;0.10;0.10;;;;;;;9.29;100.00;98191.94;5004090;28;20063;-82
2023/12/21 10:25:12;;;;;;;0.50;0.30;;;;;;;9.34;100.00;98195.22;5011650;28;20116;-82
2023/12/21 10:27:40;;;;;;;0.68;0.22;;;;;;;9.36;100.00;98182.91;5018608;28;20136;-81
2023/12/21 10:30:08;;;;;;;1.42;0.15;;;;;;;9.29;100.00;98181.50;5007919;28;20410;-81
2023/12/21 10:32:34;;;;;;;1.55;0.22;;;;;;;9.27;100.00;98171.13;4992669;28;20060;-84
2023/12/21 10:35:01;;;;;;;0.82;0.60;;;;;;;9.32;100.00;98177.00;5006494;28;20077;-83
2023/12/21 10:37:28;;;;;;;1.15;0.30;;;;;;;9.26;100.00;98172.03;4992556;28;20064;-83
2023/12/21 10:39:57;;;;;;;0.30;0.30;;;;;;;9.33;100.00;98170.00;5022613;28;20410;-83
2023/12/21 10:42:24;;;;;;;0.30;0.22;;;;;;;9.40;100.00;98161.84;4988798;28;20136;-84
2023/12/21 10:44:54;;;;;;;0.40;0.32;;;;;;;9.46;100.00;98162.50;5003931;28;20140;-83
2023/12/21 10:47:22;;;;;;;1.90;0.30;;;;;;;9.47;100.00;98145.91;5002302;28;20041;-84
2023/12/21 10:49:51;;;;;;;0.20;0.20;;;;;;;9.44;100.00;98136.44;4993320;28;20053;-84
2023/12/21 10:52:18;;;;;;;0.35;0.30;;;;;;;9.38;100.00;98128.88;5006053;28;20051;-82
2023/12/21 10:54:47;;;;;;;0.55;0.00;;;;;;;9.36;100.00;98117.66;4994508;28;20506;-84
2023/12/21 10:57:16;;;;;;;0.43;0.20;;;;;;;9.32;100.00;98101.28;5010696;28;20490;-82
2023/12/21 10:59:43;;;;;;;0.10;0.10;;;;;;;9.41;100.00;98119.16;4996552;28;20743;-82
2023/12/21 11:02:13;;;;;;;0.13;0.03;;;;;;;9.40;100.00;98103.56;5009125;28;20056;-82
2023/12/21 11:04:43;;;;;;;0.00;0.00;;;;;;;9.36;100.00;98092.41;4996826;28;20061;-83
2023/12/21 11:07:12;;;;;;;0.30;0.30;;;;;;;9.30;100.00;98086.63;4993674;28;20053;-83
2023/12/21 11:09:41;;;;;;;0.20;0.20;;;;;;;9.28;100.00;98071.00;5007781;28;20038;-83
2023/12/21 11:12:08;;;;;;;0.30;0.10;;;;;;;9.31;100.00;98065.66;4993521;28;20045;-82
2023/12/21 11:14:35;;;;;;;0.10;0.10;;;;;;;9.37;100.00;98059.28;4991402;28;20096;-83
2023/12/21 11:17:04;;;;;;;0.00;0.00;;;;;;;9.40;100.00;98053.94;5005732;28;20048;-83
2023/12/21 11:19:38;;;;;;;0.20;0.15;;;;;;;9.32;100.00;98046.47;4991210;28;20517;-83
2023/12/21 11:22:05;;;;;;;;;;;;;;;9.36;100.00;98032.34;4975562;28;20045;-83
2023/12/21 11:24:33;;;;;;;0.35;0.13;;;;;;;9.40;100.00;98023.47;4999689;28;20004;-83
2023/12/21 11:27:01;;;;;;;2.42;0.85;;;;;;;9.49;100.00;98042.22;5008481;28;20052;-83
2023/12/21 11:29:31;;;;;;;0.00;0.00;;;;;;;9.51;100.00;98025.56;4991996;28;20038;-83
2023/12/21 11:32:00;;;;;;;0.17;0.10;;;;;;;9.52;100.00;98029.88;5007080;28;20068;-83
2023/12/21 11:34:39;;;;;;;0.88;0.10;;;;;;;9.55;100.00;98019.25;4975419;28;20140;-84
2023/12/21 11:37:23;;;;;;;0.00;0.00;;;;;;;9.56;100.00;98009.69;5006946;28;20037;-84
2023/12/21 11:39:58;;;;;;;0.10;0.00;;;;;;;9.47;100.00;98003.13;5005104;28;20450;-83